Time;durP1;ratioP1;P1;durP2;ratioP2;P2;SDS_P1;SDS_P2;PMS_P1;PMS_P2;Temp;Humidity;BMP_temperature;BMP_pressure;BME280_temperature;BME280_humidity;BME280_pressure;Samples;Min_cycle;Max_cycle;Signal;HPM_P1;HPM_P2
2021/06/20 00:11:00;;;;;;;;;;;;;;;;;;;;;
2021/06/20 00:27:27;;;;;;;;;;;;;;;;;;;;;
2021/06/20 00:34:28;;;;;;;;;;;;;;;;;;;;;
2021/06/20 00:37:48;;;;;;;7.63;5.40;;;25.20;92.60;;;;;;5003500;28;20580;-80
2021/06/20 00:40:51;;;;;;;8.70;4.88;;;25.40;92.80;;;;;;4990790;28;20040;-80
2021/06/20 00:43:17;;;;;;;8.30;4.82;;;25.40;92.40;;;;;;5071737;22;20044;-82
2021/06/20 00:45:42;;;;;;;6.30;3.85;;;25.30;92.00;;;;;;5058858;28;20488;-81
2021/06/20 00:48:08;;;;;;;10.27;4.97;;;25.40;92.00;;;;;;5078710;28;20032;-82
2021/06/20 00:50:34;;;;;;;8.85;4.18;;;25.40;91.30;;;;;;5064476;28;20069;-82
2021/06/20 00:53:01;;;;;;;9.90;4.10;;;25.40;91.00;;;;;;5085891;28;20020;-82
2021/06/20 00:55:31;;;;;;;9.50;4.18;;;25.50;90.90;;;;;;5085295;28;20020;-82
2021/06/20 00:57:59;;;;;;;8.73;4.40;;;25.60;90.80;;;;;;5090557;28;20034;-81
2021/06/20 01:00:25;;;;;;;10.73;4.30;;;25.70;90.70;;;;;;5072589;28;20446;-81
2021/06/20 01:02:51;;;;;;;9.35;3.97;;;25.80;90.20;;;;;;5084965;28;20024;-82
2021/06/20 01:05:16;;;;;;;11.50;4.20;;;25.80;90.20;;;;;;5090246;28;20020;-82
2021/06/20 01:07:42;;;;;;;12.18;4.40;;;25.80;90.10;;;;;;5090595;28;20392;-82
2021/06/20 01:10:10;;;;;;;13.57;4.20;;;25.80;90.00;;;;;;5067159;28;20132;-82
2021/06/20 01:12:37;;;;;;;11.82;4.28;;;25.80;90.00;;;;;;5090480;28;20016;-81
2021/06/20 01:15:05;;;;;;;17.63;4.38;;;25.80;89.80;;;;;;5090131;28;20503;-82
2021/06/20 01:17:31;;;;;;;13.55;4.30;;;25.80;89.70;;;;;;5087159;28;20111;-81
2021/06/20 01:19:57;;;;;;;15.88;4.30;;;25.80;88.50;;;;;;5051109;28;20112;-82
2021/06/20 01:22:28;;;;;;;11.80;4.25;;;25.70;89.10;;;;;;5054174;28;20040;-82
2021/06/20 01:25:04;;;;;;;12.43;4.15;;;25.80;88.40;;;;;;5053801;28;20474;-82
2021/06/20 01:27:37;;;;;;;15.85;3.72;;;25.70;88.10;;;;;;5062989;28;20021;-82
2021/06/20 01:30:04;;;;;;;18.40;4.53;;;25.70;88.10;;;;;;5039022;28;20029;-83
2021/06/20 01:32:30;;;;;;;14.07;3.42;;;25.70;88.60;;;;;;5066835;28;20020;-81
2021/06/20 01:34:56;;;;;;;17.23;3.72;;;25.60;87.90;;;;;;5079837;28;20442;-82
2021/06/20 01:37:22;;;;;;;11.45;4.03;;;25.60;87.30;;;;;;5085099;28;20027;-82
2021/06/20 01:39:48;;;;;;;17.25;4.45;;;25.70;87.70;;;;;;5075885;28;20484;-82
2021/06/20 01:42:16;;;;;;;15.70;4.05;;;25.70;87.90;;;;;;5094021;28;20506;-82
2021/06/20 01:44:44;;;;;;;22.10;4.03;;;25.60;87.70;;;;;;5068491;28;20048;-82
2021/06/20 01:47:10;;;;;;;16.00;3.70;;;25.60;88.00;;;;;;5054045;28;20021;-82
2021/06/20 01:49:35;;;;;;;11.38;3.63;;;25.60;88.00;;;;;;5053830;28;20108;-82
2021/06/20 01:52:01;;;;;;;14.85;4.07;;;25.60;88.00;;;;;;5058188;28;20024;-82
2021/06/20 01:54:27;;;;;;;17.48;4.88;;;25.50;88.20;;;;;;5073377;28;20029;-82
2021/06/20 01:56:52;;;;;;;18.90;3.80;;;25.50;88.50;;;;;;5055687;28;20388;-83
2021/06/20 01:59:19;;;;;;;21.02;4.15;;;25.40;89.00;;;;;;5073621;28;20388;-82
2021/06/20 02:01:45;;;;;;;19.33;3.95;;;25.40;88.90;;;;;;5042358;28;20100;-82
2021/06/20 02:04:10;;;;;;;19.05;3.80;;;25.30;89.00;;;;;;5053079;28;20139;-82
2021/06/20 02:06:36;;;;;;;19.63;4.65;;;25.30;89.40;;;;;;5053552;28;20028;-82
2021/06/20 02:09:02;;;;;;;14.40;3.70;;;25.30;89.60;;;;;;5053255;28;20029;-81
2021/06/20 02:11:30;;;;;;;23.40;4.25;;;25.20;89.90;;;;;;5053500;28;20094;-82
2021/06/20 02:13:58;;;;;;;14.15;3.28;;;25.20;90.00;;;;;;5051494;28;20037;-82
2021/06/20 02:16:24;;;;;;;21.15;4.75;;;25.20;90.10;;;;;;5052078;28;20047;-81
2021/06/20 02:18:49;;;;;;;16.40;4.13;;;25.10;90.20;;;;;;5036807;28;20025;-82
2021/06/20 02:21:15;;;;;;;12.70;4.10;;;25.10;90.50;;;;;;5053311;28;20029;-81
2021/06/20 02:23:41;;;;;;;17.27;4.70;;;25.10;90.50;;;;;;5052725;28;20401;-82
2021/06/20 02:26:06;;;;;;;15.25;4.07;;;25.00;90.70;;;;;;5040808;28;20029;-82
2021/06/20 02:28:32;;;;;;;18.38;4.00;;;25.00;90.80;;;;;;5051695;28;20021;-82
2021/06/20 02:30:57;;;;;;;15.55;4.35;;;25.00;91.10;;;;;;5051542;28;20025;-82
2021/06/20 02:33:23;;;;;;;16.10;3.63;;;24.90;91.10;;;;;;5053205;28;20017;-82
2021/06/20 02:35:49;;;;;;;22.73;4.13;;;24.90;91.20;;;;;;5053899;28;20509;-81
2021/06/20 02:38:16;;;;;;;16.98;3.70;;;24.90;91.30;;;;;;5053017;28;20078;-81
2021/06/20 02:40:41;;;;;;;13.70;3.85;;;24.80;91.50;;;;;;5035438;28;20090;-81
2021/06/20 02:43:07;;;;;;;12.30;4.07;;;24.80;91.80;;;;;;5038805;28;20076;-82
2021/06/20 02:45:33;;;;;;;16.65;4.35;;;24.70;91.80;;;;;;5074395;28;20131;-82
2021/06/20 02:47:59;;;;;;;15.98;3.95;;;24.70;91.90;;;;;;5074860;28;20031;-82
2021/06/20 02:50:24;;;;;;;18.92;4.40;;;24.70;92.00;;;;;;5074819;28;20073;-82
2021/06/20 02:52:50;;;;;;;12.07;3.78;;;24.70;92.30;;;;;;5081063;28;20021;-82
2021/06/20 02:55:15;;;;;;;13.80;4.07;;;24.60;92.20;;;;;;5072242;28;20059;-81
2021/06/20 02:57:42;;;;;;;14.95;4.00;;;24.60;92.20;;;;;;5054530;28;20021;-83
2021/06/20 03:00:08;;;;;;;20.17;4.18;;;24.70;92.40;;;;;;5052179;28;20182;-82
2021/06/20 03:02:34;;;;;;;12.50;3.88;;;24.60;92.50;;;;;;5052500;28;20029;-82
2021/06/20 03:05:00;;;;;;;17.83;4.03;;;24.60;92.50;;;;;;5051942;28;20028;-81
2021/06/20 03:07:26;;;;;;;13.63;3.50;;;24.60;92.60;;;;;;5050872;28;20021;-81
2021/06/20 03:09:52;;;;;;;15.10;4.35;;;24.60;92.60;;;;;;5050942;28;20025;-82
2021/06/20 03:12:18;;;;;;;15.52;4.43;;;24.60;92.70;;;;;;5052094;28;20021;-83
2021/06/20 03:14:44;;;;;;;14.88;3.63;;;24.60;92.80;;;;;;5050524;28;20125;-82
2021/06/20 03:17:12;;;;;;;16.95;4.25;;;24.60;92.90;;;;;;5048870;28;20083;-81
2021/06/20 03:19:38;;;;;;;12.48;3.75;;;24.60;92.90;;;;;;5052175;28;20029;-82
2021/06/20 03:22:05;;;;;;;15.80;4.22;;;24.40;93.00;;;;;;5052212;28;20033;-81
2021/06/20 03:24:34;;;;;;;13.15;3.33;;;24.50;93.20;;;;;;5051670;28;20496;-82
2021/06/20 03:27:01;;;;;;;13.98;4.00;;;24.40;93.20;;;;;;5051661;28;20029;-82
2021/06/20 03:29:27;;;;;;;12.68;3.47;;;24.40;93.20;;;;;;5050707;28;20025;-82
2021/06/20 03:31:53;;;;;;;12.02;4.03;;;24.50;93.30;;;;;;5050520;28;20031;-82
2021/06/20 03:34:19;;;;;;;12.45;3.78;;;24.60;93.30;;;;;;5051262;28;20035;-82
2021/06/20 03:36:45;;;;;;;12.18;3.85;;;24.60;93.30;;;;;;5051937;28;20101;-81
2021/06/20 03:39:11;;;;;;;12.90;3.75;;;24.60;93.20;;;;;;5033861;28;20655;-82
2021/06/20 03:41:38;;;;;;;10.70;3.83;;;24.70;93.40;;;;;;5051246;28;20044;-82
2021/06/20 03:44:06;;;;;;;15.70;4.15;;;24.70;93.50;;;;;;5033802;28;20029;-82
2021/06/20 03:46:32;;;;;;;19.98;4.53;;;24.60;93.90;;;;;;5034303;28;20433;-82
2021/06/20 03:48:58;;;;;;;14.75;4.10;;;24.60;94.30;;;;;;5053235;28;20062;-82
2021/06/20 03:51:24;;;;;;;11.80;3.97;;;24.60;94.80;;;;;;5055030;28;20132;-82
2021/06/20 03:53:49;;;;;;;12.63;3.55;;;24.50;95.40;;;;;;5063217;28;20035;-82
2021/06/20 03:56:15;;;;;;;13.70;3.80;;;24.40;95.10;;;;;;5053654;28;20481;-81
2021/06/20 03:58:40;;;;;;;20.25;4.20;;;24.40;95.00;;;;;;5063673;28;20046;-81
2021/06/20 04:01:06;;;;;;;16.42;3.63;;;24.30;95.30;;;;;;5050068;28;20036;-82
2021/06/20 04:03:32;;;;;;;11.85;3.85;;;24.30;95.70;;;;;;5050987;28;20112;-82
2021/06/20 04:05:57;;;;;;;12.85;3.63;;;24.30;96.20;;;;;;5050090;28;20060;-82
2021/06/20 04:08:23;;;;;;;14.70;4.05;;;24.20;96.20;;;;;;5034012;28;20040;-82
2021/06/20 04:10:49;;;;;;;8.45;3.30;;;24.20;96.70;;;;;;5051264;28;20040;-82
2021/06/20 04:13:14;;;;;;;14.05;4.20;;;24.20;96.00;;;;;;5051057;28;20094;-82
2021/06/20 04:15:40;;;;;;;10.70;3.67;;;24.20;96.30;;;;;;5050824;28;20031;-82
2021/06/20 04:18:06;;;;;;;9.77;3.65;;;24.20;97.20;;;;;;5033216;28;20056;-82
2021/06/20 04:20:33;;;;;;;9.57;3.63;;;24.20;97.60;;;;;;5050932;28;20029;-82
2021/06/20 04:22:58;;;;;;;12.35;3.65;;;24.20;97.60;;;;;;5050942;28;20540;-82
2021/06/20 04:25:24;;;;;;;15.30;4.43;;;24.10;99.00;;;;;;5050527;28;20044;-82
2021/06/20 04:27:50;;;;;;;12.07;3.72;;;24.00;99.20;;;;;;5050687;28;20443;-82
2021/06/20 04:30:19;;;;;;;15.73;3.88;;;24.00;99.10;;;;;;5050727;28;20090;-81
2021/06/20 04:32:46;;;;;;;14.23;3.83;;;24.00;98.80;;;;;;5050942;28;20484;-82
2021/06/20 04:35:13;;;;;;;14.10;4.47;;;23.90;98.90;;;;;;5050045;28;20033;-82
2021/06/20 04:37:39;;;;;;;13.52;3.22;;;23.80;99.50;;;;;;5032789;28;20032;-82
2021/06/20 04:40:08;;;;;;;11.48;3.63;;;23.80;99.60;;;;;;5050643;28;20025;-82
2021/06/20 04:42:37;;;;;;;13.43;3.28;;;23.90;99.80;;;;;;5032563;28;20117;-82
2021/06/20 04:45:04;;;;;;;14.48;3.85;;;23.90;99.70;;;;;;5047540;28;20109;-82
2021/06/20 04:47:30;;;;;;;13.15;3.60;;;24.00;99.60;;;;;;5032588;28;20029;-82
2021/06/20 04:49:57;;;;;;;8.95;2.95;;;24.00;99.40;;;;;;5032700;28;20158;-82
2021/06/20 04:52:24;;;;;;;9.52;3.22;;;23.90;99.20;;;;;;5032423;28;20024;-81
2021/06/20 04:54:50;;;;;;;10.25;3.78;;;24.00;99.20;;;;;;5031454;28;20407;-83
2021/06/20 04:57:25;;;;;;;10.20;2.85;;;24.00;99.40;;;;;;5050292;28;20053;-82
2021/06/20 04:59:53;;;;;;;12.07;3.22;;;24.00;99.60;;;;;;5032558;28;20025;-81
2021/06/20 05:02:20;;;;;;;15.20;3.70;;;24.00;99.40;;;;;;5049862;28;20028;-82
2021/06/20 05:04:46;;;;;;;12.02;3.17;;;24.00;99.40;;;;;;5050002;28;20040;-81
2021/06/20 05:07:12;;;;;;;10.93;2.80;;;24.10;99.30;;;;;;5048913;28;20251;-82
2021/06/20 05:09:38;;;;;;;11.77;3.08;;;24.20;99.30;;;;;;5032300;28;20025;-82
2021/06/20 05:12:06;;;;;;;12.23;3.10;;;24.20;99.10;;;;;;5050007;28;20053;-81
2021/06/20 05:14:33;;;;;;;13.18;3.38;;;24.20;98.90;;;;;;5049949;28;20110;-82
2021/06/20 05:16:58;;;;;;;10.65;3.28;;;24.20;99.00;;;;;;5050289;28;20025;-82
2021/06/20 05:19:24;;;;;;;11.45;3.42;;;24.20;99.20;;;;;;5050191;28;20374;-81
2021/06/20 05:21:50;;;;;;;13.18;2.88;;;24.00;99.20;;;;;;5049799;28;20545;-81
2021/06/20 05:24:16;;;;;;;9.93;2.70;;;23.90;99.20;;;;;;5049865;28;20120;-81
2021/06/20 05:26:42;;;;;;;11.75;3.35;;;23.70;99.90;;;;;;5050312;28;20060;-81
2021/06/20 05:29:07;;;;;;;10.48;3.13;;;23.60;99.90;;;;;;5050228;28;20120;-82
2021/06/20 05:31:33;;;;;;;9.48;2.80;;;23.60;99.90;;;;;;5050063;28;20139;-82
2021/06/20 05:33:59;;;;;;;12.57;3.53;;;23.60;99.90;;;;;;5031974;28;20069;-82
2021/06/20 05:36:24;;;;;;;13.68;3.22;;;23.80;99.90;;;;;;5050184;28;20404;-82
2021/06/20 05:38:50;;;;;;;12.77;3.00;;;23.90;99.90;;;;;;5031995;28;20036;-83
2021/06/20 05:41:15;;;;;;;10.25;3.17;;;24.00;99.90;;;;;;5049949;28;20037;-82
2021/06/20 05:43:41;;;;;;;8.02;2.80;;;24.10;99.90;;;;;;5062707;28;20187;-83
2021/06/20 05:46:07;;;;;;;8.73;2.85;;;24.10;99.90;;;;;;5090416;28;20032;-82
2021/06/20 05:48:33;;;;;;;11.93;3.08;;;24.20;99.90;;;;;;5066505;28;20053;-82
2021/06/20 05:50:59;;;;;;;8.43;2.90;;;24.30;99.90;;;;;;5049852;28;20017;-82
2021/06/20 05:53:24;;;;;;;13.02;3.33;;;24.40;99.90;;;;;;5039358;28;20444;-82
2021/06/20 05:55:50;;;;;;;7.20;2.33;;;24.40;99.90;;;;;;5070002;28;20048;-82
2021/06/20 05:58:16;;;;;;;7.70;2.60;;;24.40;99.90;;;;;;5056154;28;20056;-83
2021/06/20 06:00:42;;;;;;;10.00;2.88;;;24.40;99.90;;;;;;5048585;28;20504;-81
2021/06/20 06:03:07;;;;;;;15.38;3.15;;;24.30;99.90;;;;;;5031859;28;20033;-82
2021/06/20 06:05:33;;;;;;;10.05;2.30;;;24.20;99.90;;;;;;5050924;28;20043;-82
2021/06/20 06:07:59;;;;;;;12.40;3.30;;;24.10;99.90;;;;;;5053433;28;20029;-82
2021/06/20 06:10:26;;;;;;;10.35;2.58;;;24.00;99.90;;;;;;5035614;28;20021;-82
2021/06/20 06:12:51;;;;;;;8.55;2.58;;;24.00;99.90;;;;;;5035798;28;20021;-81
2021/06/20 06:15:17;;;;;;;11.68;2.72;;;24.10;99.90;;;;;;5052996;28;20515;-82
2021/06/20 06:17:43;;;;;;;8.88;2.20;;;24.30;99.90;;;;;;5053642;28;20334;-82
2021/06/20 06:20:09;;;;;;;8.50;2.30;;;24.40;99.90;;;;;;5053430;28;20031;-82
2021/06/20 06:22:35;;;;;;;7.95;2.40;;;24.40;99.60;;;;;;5053423;28;20029;-81
2021/06/20 06:25:01;;;;;;;9.50;2.38;;;24.30;99.80;;;;;;5052938;28;20104;-82
2021/06/20 06:27:27;;;;;;;7.75;2.33;;;24.30;99.50;;;;;;5035736;28;20493;-82
2021/06/20 06:29:53;;;;;;;7.22;2.33;;;24.40;98.70;;;;;;5053356;28;20021;-83
2021/06/20 06:32:18;;;;;;;6.90;2.33;;;24.40;99.20;;;;;;5053376;28;20413;-82
2021/06/20 06:34:44;;;;;;;8.07;2.10;;;24.50;99.10;;;;;;5046585;28;20029;-82
2021/06/20 06:37:09;;;;;;;7.78;1.70;;;24.60;97.70;;;;;;5053539;28;20499;-82
2021/06/20 06:39:35;;;;;;;7.70;1.70;;;24.60;97.50;;;;;;5086350;28;20476;-81
2021/06/20 06:42:01;;;;;;;5.57;1.67;;;24.40;97.30;;;;;;5071221;28;20039;-81
2021/06/20 06:44:28;;;;;;;10.85;2.10;;;24.30;97.60;;;;;;5049862;28;20085;-81
2021/06/20 06:46:54;;;;;;;6.97;2.03;;;24.50;98.00;;;;;;5068478;22;20048;-80
2021/06/20 06:49:20;;;;;;;5.82;1.88;;;24.70;97.80;;;;;;5052426;28;20051;-81
2021/06/20 06:51:46;;;;;;;6.97;1.80;;;24.90;96.90;;;;;;5052176;28;20021;-80
2021/06/20 06:54:12;;;;;;;7.00;1.70;;;24.90;96.90;;;;;;5052734;28;20025;-81
2021/06/20 06:56:38;;;;;;;7.38;1.88;;;24.90;97.10;;;;;;5048056;28;20383;-80
2021/06/20 06:59:04;;;;;;;7.05;2.00;;;24.80;96.30;;;;;;5026728;28;20107;-80
2021/06/20 07:01:30;;;;;;;5.00;1.75;;;24.70;96.40;;;;;;5033881;28;20143;-80
2021/06/20 07:03:56;;;;;;;7.05;1.85;;;24.60;97.00;;;;;;5051050;28;20446;-81
2021/06/20 07:06:22;;;;;;;7.68;1.73;;;24.80;97.60;;;;;;5055222;28;20096;-81
2021/06/20 07:08:48;;;;;;;6.18;1.50;;;25.00;96.30;;;;;;5051820;28;20025;-81
2021/06/20 07:11:14;;;;;;;9.10;2.00;;;25.10;96.90;;;;;;5042273;28;20062;-81
2021/06/20 07:13:40;;;;;;;9.65;1.80;;;25.00;96.30;;;;;;5046696;28;20029;-80
2021/06/20 07:16:06;;;;;;;6.63;2.08;;;25.10;96.20;;;;;;5052880;28;20059;-80
2021/06/20 07:18:32;;;;;;;9.63;1.88;;;25.10;96.90;;;;;;5045279;28;20032;-81
2021/06/20 07:20:59;;;;;;;7.00;2.00;;;25.20;96.40;;;;;;5051307;28;20405;-79
2021/06/20 07:23:25;;;;;;;8.90;2.10;;;25.30;96.50;;;;;;5052771;28;20127;-80
2021/06/20 07:25:50;;;;;;;13.15;2.45;;;25.30;95.80;;;;;;5054677;28;20028;-81
2021/06/20 07:28:16;;;;;;;6.93;1.95;;;25.40;95.70;;;;;;5030496;28;20028;-80
2021/06/20 07:30:42;;;;;;;6.25;1.85;;;25.60;95.90;;;;;;5029852;28;20025;-80
2021/06/20 07:33:09;;;;;;;6.25;1.73;;;25.90;95.90;;;;;;5062077;28;20135;-83
2021/06/20 07:35:34;;;;;;;5.35;1.45;;;26.00;95.50;;;;;;5036867;28;20025;-84
2021/06/20 07:38:00;;;;;;;9.25;1.80;;;26.10;94.60;;;;;;5055050;28;20041;-80
2021/06/20 07:40:25;;;;;;;5.55;1.70;;;26.10;95.30;;;;;;5032277;28;20516;-80
2021/06/20 07:42:51;;;;;;;8.00;2.00;;;26.00;95.30;;;;;;5051175;28;20175;-82
2021/06/20 07:45:17;;;;;;;7.32;1.80;;;25.90;95.40;;;;;;5042047;28;20148;-79
2021/06/20 07:47:43;;;;;;;6.70;1.40;;;25.80;95.20;;;;;;5038732;28;20025;-81
2021/06/20 07:50:11;;;;;;;5.63;1.75;;;25.80;95.10;;;;;;5053972;28;20021;-82
2021/06/20 07:52:38;;;;;;;4.55;1.60;;;25.80;95.30;;;;;;5031600;28;20021;-82
2021/06/20 07:55:06;;;;;;;5.65;1.52;;;25.50;95.40;;;;;;5042333;28;20051;-83
2021/06/20 07:57:32;;;;;;;9.65;1.70;;;25.40;95.50;;;;;;5054032;28;20076;-82
2021/06/20 07:59:58;;;;;;;5.18;1.42;;;25.40;95.10;;;;;;5062638;28;20103;-82
2021/06/20 08:02:23;;;;;;;4.43;1.52;;;25.30;94.90;;;;;;5043848;28;20028;-82
2021/06/20 08:04:49;;;;;;;9.07;1.67;;;25.30;95.10;;;;;;5060344;28;20021;-82
2021/06/20 08:07:15;;;;;;;5.07;1.60;;;25.30;95.10;;;;;;5040081;28;20393;-81
2021/06/20 08:09:42;;;;;;;8.48;1.73;;;25.20;95.20;;;;;;5036206;28;20509;-79
2021/06/20 08:12:08;;;;;;;5.57;1.48;;;25.20;94.80;;;;;;5050941;28;20036;-82
2021/06/20 08:14:35;;;;;;;4.80;1.63;;;25.20;95.10;;;;;;5053291;28;20052;-82
2021/06/20 08:17:00;;;;;;;8.80;1.40;;;25.30;95.30;;;;;;5053226;28;20092;-82
2021/06/20 08:19:26;;;;;;;6.93;2.00;;;25.40;95.60;;;;;;5054170;28;20059;-83
2021/06/20 08:21:52;;;;;;;7.38;1.75;;;25.60;95.00;;;;;;5034770;28;20033;-82
2021/06/20 08:24:17;;;;;;;9.27;1.80;;;25.70;94.90;;;;;;5036356;28;20036;-82
2021/06/20 08:26:45;;;;;;;7.50;1.80;;;25.80;94.50;;;;;;5053447;28;20032;-82
2021/06/20 08:29:11;;;;;;;4.07;1.73;;;25.90;94.60;;;;;;5041722;28;20021;-84
2021/06/20 08:31:37;;;;;;;6.63;1.70;;;26.00;94.50;;;;;;5017922;28;20477;-83
2021/06/20 08:34:03;;;;;;;8.35;2.10;;;26.10;93.70;;;;;;5039512;28;20047;-81
2021/06/20 08:36:29;;;;;;;6.45;2.45;;;26.00;93.90;;;;;;5037430;28;20033;-83
2021/06/20 08:38:55;;;;;;;7.43;1.98;;;26.00;94.00;;;;;;5025105;28;20072;-83
2021/06/20 08:41:22;;;;;;;5.88;1.70;;;25.90;93.90;;;;;;5062964;28;20388;-83
2021/06/20 08:43:49;;;;;;;7.03;2.03;;;26.00;94.00;;;;;;5058025;28;20044;-84
2021/06/20 08:46:15;;;;;;;10.30;1.75;;;26.10;94.20;;;;;;5058235;28;20148;-84
2021/06/20 08:48:41;;;;;;;8.57;2.00;;;26.00;94.10;;;;;;5056657;28;20497;-84
2021/06/20 08:51:07;;;;;;;5.68;1.70;;;25.90;94.10;;;;;;5065298;28;20048;-84
2021/06/20 08:53:33;;;;;;;6.63;2.22;;;26.00;94.30;;;;;;5043540;28;20045;-84
2021/06/20 08:55:59;;;;;;;8.48;1.75;;;26.00;94.10;;;;;;5036552;28;20033;-84
2021/06/20 08:58:27;;;;;;;8.90;1.95;;;26.10;93.60;;;;;;5034154;28;20436;-82
2021/06/20 09:00:55;;;;;;;9.02;1.95;;;26.20;93.40;;;;;;5022315;28;20032;-84
2021/06/20 09:03:21;;;;;;;4.60;1.60;;;26.20;93.00;;;;;;5049372;28;20098;-83
2021/06/20 09:06:12;;;;;;;5.18;1.60;;;26.30;93.00;;;;;;5052326;28;20759;-81
2021/06/20 09:08:37;;;;;;;5.63;1.40;;;26.50;93.10;;;;;;5067258;28;20083;-81
2021/06/20 09:11:03;;;;;;;5.03;1.55;;;26.60;93.00;;;;;;5029608;28;20053;-82
2021/06/20 09:13:35;;;;;;;5.53;1.88;;;26.50;92.20;;;;;;5039653;28;20020;-82
2021/06/20 09:16:04;;;;;;;7.95;2.03;;;26.60;92.70;;;;;;5033781;28;20037;-82
2021/06/20 09:18:29;;;;;;;8.88;1.70;;;26.40;92.40;;;;;;5063930;28;20028;-82
2021/06/20 09:20:55;;;;;;;6.68;1.80;;;26.40;92.90;;;;;;5042030;28;20031;-82
2021/06/20 09:23:21;;;;;;;5.28;1.52;;;26.50;92.80;;;;;;5044107;28;20126;-82
2021/06/20 09:26:00;;;;;;;9.23;1.73;;;26.60;92.50;;;;;;5033352;28;20047;-84
2021/06/20 09:28:35;;;;;;;5.03;1.45;;;26.50;93.00;;;;;;5037819;28;20113;-82
2021/06/20 09:31:05;;;;;;;5.53;1.80;;;26.60;92.90;;;;;;5050898;28;20033;-81
2021/06/20 09:33:32;;;;;;;6.13;2.05;;;26.50;92.60;;;;;;5036136;28;20091;-82
2021/06/20 09:35:59;;;;;;;5.28;1.60;;;26.70;92.30;;;;;;5026480;28;20116;-84
2021/06/20 09:38:33;;;;;;;4.57;1.48;;;26.70;92.60;;;;;;5054324;28;20104;-84
2021/06/20 09:41:03;;;;;;;10.05;1.88;;;26.90;92.50;;;;;;5055235;28;20104;-84
2021/06/20 09:43:30;;;;;;;7.35;1.60;;;26.70;91.80;;;;;;5056295;28;20029;-84
2021/06/20 09:45:56;;;;;;;6.72;1.90;;;26.70;91.80;;;;;;5050784;28;20029;-84
2021/06/20 09:48:23;;;;;;;7.28;1.45;;;26.70;92.10;;;;;;5046558;28;20023;-85
2021/06/20 09:50:51;;;;;;;8.45;1.35;;;26.90;90.90;;;;;;5060429;28;20021;-84
2021/06/20 09:53:20;;;;;;;6.50;1.35;;;26.90;90.10;;;;;;5045264;28;20041;-85
2021/06/20 09:55:45;;;;;;;4.03;1.55;;;27.10;90.10;;;;;;5041383;28;20091;-84
2021/06/20 09:58:11;;;;;;;4.57;1.17;;;27.00;89.90;;;;;;5045981;28;20021;-84
2021/06/20 10:00:43;;;;;;;5.13;1.33;;;27.20;89.90;;;;;;5038331;28;20643;-84
2021/06/20 10:03:23;;;;;;;4.18;1.20;;;27.30;87.90;;;;;;5031828;28;20060;-83
2021/06/20 10:05:51;;;;;;;3.88;1.00;;;27.30;88.00;;;;;;5057849;28;20017;-84
2021/06/20 10:08:18;;;;;;;4.03;1.20;;;27.40;88.20;;;;;;5035491;28;20477;-84
2021/06/20 10:10:44;;;;;;;5.60;1.30;;;27.40;87.30;;;;;;5056927;28;20028;-83
2021/06/20 10:13:10;;;;;;;5.55;1.02;;;27.40;87.70;;;;;;5059525;28;20113;-82
2021/06/20 10:15:36;;;;;;;4.35;1.30;;;27.30;86.60;;;;;;5041885;28;20065;-82
2021/06/20 10:18:06;;;;;;;5.88;1.25;;;27.20;86.70;;;;;;5040944;28;20025;-82
2021/06/20 10:20:34;;;;;;;4.40;1.02;;;27.20;87.80;;;;;;5040430;28;20457;-82
2021/06/20 10:23:01;;;;;;;5.65;0.90;;;27.30;87.90;;;;;;5036749;28;20045;-82
2021/06/20 10:25:28;;;;;;;5.55;1.35;;;27.40;87.00;;;;;;5046991;28;20029;-82
2021/06/20 10:28:11;;;;;;;8.50;1.33;;;27.30;86.50;;;;;;5043835;28;20390;-83
2021/06/20 10:30:36;;;;;;;5.22;1.00;;;27.20;85.50;;;;;;5042697;28;20030;-83
2021/06/20 10:33:04;;;;;;;8.43;1.45;;;27.10;86.70;;;;;;5020666;28;20025;-84
2021/06/20 10:35:30;;;;;;;3.90;1.08;;;27.10;86.50;;;;;;5038836;28;20025;-83
2021/06/20 10:37:56;;;;;;;4.07;1.05;;;27.20;85.70;;;;;;5043652;28;20043;-84
2021/06/20 10:40:23;;;;;;;6.75;1.15;;;27.30;86.20;;;;;;5043476;28;20039;-84
2021/06/20 10:42:50;;;;;;;8.63;1.23;;;27.30;85.50;;;;;;5037857;28;20026;-82
2021/06/20 10:45:32;;;;;;;4.28;1.02;;;27.30;85.70;;;;;;5044762;28;20060;-82
2021/06/20 10:47:58;;;;;;;;;;;27.20;85.30;;;;;;5039150;28;20087;-82
2021/06/20 10:50:35;;;;;;;6.07;1.05;;;27.20;85.60;;;;;;5041835;28;20273;-83
2021/06/20 10:53:01;;;;;;;6.65;1.30;;;27.30;85.40;;;;;;5020198;28;20052;-83
2021/06/20 10:55:41;;;;;;;6.55;1.40;;;27.30;85.50;;;;;;5035068;28;20369;-82
2021/06/20 10:58:28;;;;;;;5.25;1.13;;;27.40;84.90;;;;;;5033348;28;20120;-82
2021/06/20 11:01:11;;;;;;;5.55;1.52;;;27.60;85.20;;;;;;5015741;28;20489;-83
2021/06/20 11:03:39;;;;;;;4.25;0.98;;;27.90;84.40;;;;;;5015501;28;20285;-84
2021/06/20 11:06:04;;;;;;;4.68;1.33;;;28.20;84.90;;;;;;5037822;28;20040;-83
2021/06/20 11:08:32;;;;;;;3.63;1.10;;;28.30;85.50;;;;;;5052625;28;20020;-83
2021/06/20 11:11:18;;;;;;;6.50;1.40;;;28.50;83.70;;;;;;5031632;28;20029;-84
2021/06/20 11:13:47;;;;;;;3.88;1.48;;;28.80;84.10;;;;;;5055488;28;20021;-84
2021/06/20 11:16:31;;;;;;;5.55;1.20;;;29.10;83.40;;;;;;5034268;28;20533;-84
2021/06/20 11:19:06;;;;;;;4.57;0.93;;;29.40;82.00;;;;;;5049347;28;20108;-84
2021/06/20 11:21:33;;;;;;;4.63;1.08;;;29.40;82.60;;;;;;5053201;28;20024;-84
2021/06/20 11:23:59;;;;;;;4.47;1.27;;;29.60;82.00;;;;;;5023936;28;20327;-84
2021/06/20 11:26:25;;;;;;;3.88;1.20;;;29.90;82.20;;;;;;5055236;28;20186;-84
2021/06/20 11:29:05;;;;;;;8.35;1.08;;;30.30;81.00;;;;;;5051075;28;20025;-84
2021/06/20 11:31:32;;;;;;;3.45;1.20;;;30.60;80.60;;;;;;5028715;28;20032;-83
2021/06/20 11:33:58;;;;;;;4.00;1.10;;;31.00;79.40;;;;;;5049955;28;20497;-84
2021/06/20 11:36:27;;;;;;;4.75;1.35;;;31.20;77.70;;;;;;5039126;28;20108;-83
2021/06/20 11:38:52;;;;;;;5.30;1.20;;;31.30;77.30;;;;;;5046097;28;20029;-84
2021/06/20 11:41:21;;;;;;;5.22;1.10;;;31.20;77.70;;;;;;5037571;28;20032;-84
2021/06/20 11:43:59;;;;;;;7.13;1.30;;;31.00;75.90;;;;;;5049746;28;20041;-85
2021/06/20 11:46:27;;;;;;;6.35;1.35;;;31.00;77.80;;;;;;5035824;28;20127;-84
2021/06/20 11:48:56;;;;;;;4.05;1.42;;;30.80;76.60;;;;;;5051319;28;20021;-84
2021/06/20 11:51:41;;;;;;;5.15;1.30;;;30.60;76.80;;;;;;5036257;28;20035;-84
2021/06/20 11:54:17;;;;;;;4.95;1.30;;;30.70;76.90;;;;;;5055573;28;20047;-83
2021/06/20 11:56:46;;;;;;;7.65;1.30;;;30.50;77.00;;;;;;5052694;28;20021;-83
2021/06/20 11:59:13;;;;;;;7.93;1.63;;;30.80;77.70;;;;;;5031985;28;20028;-84
2021/06/20 12:01:47;;;;;;;5.97;1.30;;;30.80;77.40;;;;;;5057361;28;20490;-84
2021/06/20 12:04:18;;;;;;;4.95;1.40;;;31.10;78.10;;;;;;5033398;28;20103;-85
2021/06/20 12:06:46;;;;;;;6.03;1.65;;;31.70;75.60;;;;;;5033745;28;20497;-85
2021/06/20 12:09:13;;;;;;;6.72;1.65;;;31.30;72.70;;;;;;5043703;28;20036;-85
2021/06/20 12:11:40;;;;;;;9.60;1.60;;;31.30;73.20;;;;;;5062191;28;20024;-85
2021/06/20 12:14:18;;;;;;;7.70;1.90;;;31.60;71.90;;;;;;5068636;28;20037;-85
2021/06/20 12:16:45;;;;;;;7.25;1.88;;;31.40;72.90;;;;;;5074400;28;20078;-85
2021/06/20 12:19:18;;;;;;;8.25;1.40;;;31.60;71.80;;;;;;5064732;28;20076;-85
2021/06/20 12:21:46;;;;;;;12.07;2.47;;;31.90;69.80;;;;;;5033162;28;20029;-85
2021/06/20 12:24:13;;;;;;;7.30;1.90;;;31.80;67.40;;;;;;5016566;28;20026;-84
2021/06/20 12:26:52;;;;;;;11.52;1.85;;;31.70;68.40;;;;;;5033553;28;20088;-84
2021/06/20 12:29:19;;;;;;;6.95;2.05;;;31.80;67.30;;;;;;5032457;28;20087;-84
2021/06/20 12:31:59;;;;;;;11.65;2.10;;;32.00;66.70;;;;;;5031596;28;20032;-85
2021/06/20 12:34:25;;;;;;;8.90;2.17;;;32.30;67.20;;;;;;5030639;28;20038;-85
2021/06/20 12:36:58;;;;;;;11.23;1.63;;;32.50;67.80;;;;;;5032979;28;20104;-85
2021/06/20 12:39:25;;;;;;;12.13;2.10;;;32.70;65.60;;;;;;5030692;28;20108;-85
2021/06/20 12:41:58;;;;;;;10.73;2.42;;;32.80;65.30;;;;;;5014826;28;20067;-85
2021/06/20 12:44:26;;;;;;;8.90;1.77;;;33.60;64.50;;;;;;5032065;28;20026;-85
2021/06/20 12:46:52;;;;;;;9.10;1.63;;;33.70;65.40;;;;;;5033272;28;20068;-84
2021/06/20 12:49:18;;;;;;;8.13;2.20;;;33.50;63.70;;;;;;5015505;28;20033;-85
2021/06/20 12:51:52;;;;;;;10.93;2.30;;;33.60;63.90;;;;;;5032713;28;20030;-85
2021/06/20 12:54:20;;;;;;;7.70;2.35;;;33.80;62.60;;;;;;5029934;28;20025;-85
2021/06/20 12:56:46;;;;;;;7.80;2.03;;;33.60;62.10;;;;;;5038711;28;20456;-85
2021/06/20 12:59:12;;;;;;;9.40;1.92;;;34.10;61.80;;;;;;5030734;28;20063;-85
2021/06/20 13:01:47;;;;;;;8.90;2.38;;;33.80;62.00;;;;;;5015097;28;20389;-85
2021/06/20 13:04:14;;;;;;;7.20;1.83;;;33.90;62.40;;;;;;5014449;28;20037;-85
2021/06/20 13:06:40;;;;;;;7.25;1.80;;;33.80;63.20;;;;;;5014608;28;20035;-85
2021/06/20 13:09:07;;;;;;;13.57;1.92;;;33.50;62.60;;;;;;5033007;28;20022;-85
2021/06/20 13:11:34;;;;;;;13.48;2.28;;;33.20;62.30;;;;;;5013614;28;20036;-84
2021/06/20 13:14:11;;;;;;;11.20;2.20;;;33.00;63.40;;;;;;5047920;28;20024;-84
2021/06/20 13:16:37;;;;;;;9.80;1.98;;;33.20;64.00;;;;;;5060666;28;20528;-84